This is the latest recevied weather packets stored in our database for station/object OH2HCY-3. If no packets are shown the sender has not sent any weather packets the latest 10 day(s).
| Time | Temp. | Humidity | Pressure | Rain* | Wind** | Luminosity | Snow |
|---|---|---|---|---|---|---|---|
| 1788010747 | 18.89° C | 63% | 1011.6 hPa | - | - | - | - |
| 1788008438 | 20.56° C | 57% | 1011.9 hPa | - | - | - | - |
| 1788007273 | 20.56° C | 57% | 1012.2 hPa | - | - | - | - |
| 1788006177 | 20° C | 59% | 1012.5 hPa | - | - | - | - |
| 1788005159 | 20° C | 62% | 1012.8 hPa | - | - | - | - |
| 1788005156 | 20° C | 62% | 1012.8 hPa | - | - | - | - |
| 1788003989 | 18.89° C | 66% | 1013.1 hPa | - | - | - | - |
| 1788003983 | 18.89° C | 66% | 1013.1 hPa | - | - | - | - |
| 1788002822 | 18.89° C | 66% | 1013.5 hPa | - | - | - | - |
| 1788001663 | 18.89° C | 66% | 1013.7 hPa | - | - | - | - |
| 1787999540 | 18.33° C | 68% | 1014 hPa | - | - | - | - |
| 1787998503 | 18.33° C | 67% | 1014 hPa | - | - | - | - |
| 1787997485 | 18.33° C | 66% | 1014.3 hPa | - | - | - | - |
| 1787997483 | 18.33° C | 66% | 1014.3 hPa | - | - | - | - |
| 1787996483 | 18.89° C | 65% | 1014.4 hPa | - | - | - | - |
| 1787994228 | 18.33° C | 66% | 1014.4 hPa | - | - | - | - |
| 1787993112 | 18.33° C | 67% | 1014.6 hPa | - | - | - | - |
| 1787992132 | 17.78° C | 67% | 1014.7 hPa | - | - | - | - |
| 1787990986 | 17.78° C | 69% | 1014.7 hPa | - | - | - | - |
| 1787989851 | 17.78° C | 69% | 1014.9 hPa | - | - | - | - |
| 1787988886 | 17.78° C | 70% | 1015 hPa | - | - | - | - |
| 1787987737 | 17.22° C | 71% | 1015.1 hPa | - | - | - | - |
| 1787987733 | 17.22° C | 71% | 1015.1 hPa | - | - | - | - |
| 1787984408 | 16.67° C | 73% | 1015.6 hPa | - | - | - | - |
| 1787983272 | 16.67° C | 73% | 1015.5 hPa | - | - | - | - |
* Rain since midnight (hover to see other rain measurements)
** Current wind speed in m/s (hover to see current wind gust speed)